createdAt,value
2017-09-30T00:01:18.481Z,23.90
2017-09-30T00:03:45.094Z,26.23
2017-09-30T00:06:11.714Z,26.27
2017-09-30T00:08:38.438Z,24.12
2017-09-30T00:11:05.061Z,24.08
2017-09-30T00:13:31.673Z,21.17
2017-09-30T00:15:58.286Z,24.15
2017-09-30T00:18:24.918Z,25.00
2017-09-30T00:20:51.534Z,25.80
2017-09-30T00:23:18.150Z,28.92
2017-09-30T00:25:44.801Z,28.52
2017-09-30T00:28:11.419Z,27.13
2017-09-30T00:30:38.050Z,26.55
2017-09-30T00:33:04.653Z,24.52
2017-09-30T00:35:31.270Z,25.30
2017-09-30T00:37:57.898Z,26.83
2017-09-30T00:40:24.511Z,24.52
2017-09-30T00:42:51.138Z,23.85
2017-09-30T00:45:17.809Z,25.65
2017-09-30T00:47:44.453Z,26.45
2017-09-30T00:50:11.082Z,25.42
2017-09-30T00:52:37.689Z,26.02
2017-09-30T00:55:04.294Z,27.00
2017-09-30T00:57:31.010Z,25.25
2017-09-30T00:59:57.647Z,24.20
2017-09-30T01:02:24.253Z,24.90
2017-09-30T01:04:50.881Z,24.77
2017-09-30T01:07:17.493Z,24.55
2017-09-30T01:09:44.205Z,24.33
2017-09-30T01:12:10.830Z,25.05
2017-09-30T01:14:37.441Z,25.00
2017-09-30T01:17:04.050Z,25.33
2017-09-30T01:19:30.674Z,23.35
2017-09-30T01:21:57.282Z,24.12
2017-09-30T01:24:23.888Z,24.00
2017-09-30T01:26:50.515Z,23.42
2017-09-30T01:29:17.126Z,23.00
2017-09-30T01:31:43.751Z,23.27
2017-09-30T01:34:10.355Z,23.92
2017-09-30T01:36:36.961Z,23.30
2017-09-30T01:39:03.586Z,25.65
2017-09-30T01:41:30.198Z,24.90
2017-09-30T01:43:56.811Z,24.05
2017-09-30T01:46:23.445Z,25.30
2017-09-30T01:48:50.058Z,23.80
2017-09-30T01:51:16.668Z,23.15
2017-09-30T01:53:43.294Z,25.05
2017-09-30T01:56:09.898Z,24.87
2017-09-30T01:58:36.511Z,23.25
2017-09-30T02:01:03.129Z,24.58
2017-09-30T02:03:29.742Z,25.23
2017-09-30T02:05:56.354Z,28.23
2017-09-30T02:08:22.978Z,24.87
2017-09-30T02:10:49.590Z,27.23
2017-09-30T02:13:16.205Z,26.48
2017-09-30T02:15:42.830Z,25.70
2017-09-30T02:18:09.450Z,25.25
2017-09-30T02:20:36.062Z,28.20
2017-09-30T02:23:02.690Z,27.48
2017-09-30T02:25:29.303Z,27.45
2017-09-30T02:27:55.906Z,26.48
2017-09-30T02:30:22.531Z,26.40
2017-09-30T02:32:49.215Z,26.20
2017-09-30T02:35:15.841Z,27.15
2017-09-30T02:37:42.491Z,30.02
2017-09-30T02:40:09.107Z,25.50
2017-09-30T02:42:35.753Z,27.48
2017-09-30T02:45:02.366Z,26.25
2017-09-30T02:47:28.974Z,27.02
2017-09-30T02:49:55.609Z,25.90
2017-09-30T02:52:22.221Z,23.67
2017-09-30T02:54:48.830Z,25.62
2017-09-30T02:57:15.453Z,23.27
2017-09-30T02:59:42.061Z,25.88
2017-09-30T03:02:08.674Z,25.08
2017-09-30T03:04:35.303Z,28.48
2017-09-30T03:07:01.913Z,28.00
2017-09-30T03:09:29.448Z,30.35
2017-09-30T03:11:56.357Z,25.88
2017-09-30T03:14:22.985Z,27.33
2017-09-30T03:16:49.598Z,25.12
2017-09-30T03:19:16.222Z,26.67
2017-09-30T03:21:42.835Z,32.58
2017-09-30T03:24:09.437Z,29.73
2017-09-30T03:26:36.067Z,29.40
2017-09-30T03:29:02.677Z,38.42
2017-09-30T03:31:29.289Z,27.85
2017-09-30T03:33:55.914Z,26.80
2017-09-30T03:36:22.518Z,27.48
2017-09-30T03:38:49.126Z,27.48
2017-09-30T03:41:15.822Z,24.15
2017-09-30T03:43:42.433Z,38.38
2017-09-30T03:46:09.085Z,64.87
2017-09-30T03:48:35.737Z,33.53
2017-09-30T03:51:02.350Z,27.00
2017-09-30T03:53:28.977Z,42.10
2017-09-30T03:55:55.653Z,28.50
2017-09-30T03:58:22.267Z,36.28
2017-09-30T04:00:48.943Z,36.45
2017-09-30T04:03:15.546Z,46.53
2017-09-30T04:05:42.159Z,43.58
2017-09-30T04:08:08.786Z,32.70
2017-09-30T04:10:35.394Z,30.98
2017-09-30T04:13:02.016Z,123.50
2017-09-30T04:15:28.642Z,92.90
2017-09-30T04:17:55.248Z,56.30
2017-09-30T04:20:21.859Z,49.95
2017-09-30T04:22:48.486Z,41.78
2017-09-30T04:25:15.089Z,31.55
2017-09-30T04:27:41.698Z,31.33
2017-09-30T04:30:08.331Z,41.60
2017-09-30T04:32:34.936Z,27.20
2017-09-30T04:35:01.554Z,29.02
2017-09-30T04:37:28.222Z,56.80
2017-09-30T04:39:54.834Z,41.33
2017-09-30T04:42:21.438Z,74.85
2017-09-30T04:44:48.067Z,47.08
2017-09-30T04:47:14.674Z,67.00
2017-09-30T04:49:41.569Z,47.62
2017-09-30T04:52:08.393Z,56.55
2017-09-30T04:54:35.097Z,74.32
2017-09-30T04:57:01.821Z,60.83
2017-09-30T04:59:28.619Z,62.67
2017-09-30T05:01:55.299Z,81.82
2017-09-30T05:04:22.206Z,58.80
2017-09-30T05:06:48.946Z,30.08
2017-09-30T05:09:15.688Z,29.67
2017-09-30T05:11:42.840Z,72.60
2017-09-30T05:14:09.765Z,53.45
2017-09-30T05:16:36.729Z,28.27
2017-09-30T05:19:03.674Z,25.90
2017-09-30T05:21:30.521Z,27.40
2017-09-30T05:23:57.358Z,26.25
2017-09-30T05:26:24.406Z,26.40
2017-09-30T05:28:51.350Z,42.88
2017-09-30T05:31:18.358Z,38.40
2017-09-30T05:33:45.340Z,46.25
2017-09-30T05:36:12.391Z,57.72
2017-09-30T05:38:39.434Z,43.10
2017-09-30T05:41:06.355Z,31.20
2017-09-30T05:43:33.323Z,27.02
2017-09-30T05:46:00.340Z,83.68
2017-09-30T05:48:27.212Z,47.90
2017-09-30T05:50:54.054Z,42.33
2017-09-30T05:53:20.895Z,39.83
2017-09-30T05:55:47.841Z,28.55
2017-09-30T05:58:14.683Z,29.50
2017-09-30T06:00:41.526Z,30.73
2017-09-30T06:03:08.368Z,42.97
2017-09-30T06:05:35.153Z,32.83
2017-09-30T06:08:01.949Z,29.83
2017-09-30T06:10:28.730Z,30.00
2017-09-30T06:12:55.531Z,37.42
2017-09-30T06:15:22.371Z,46.75
2017-09-30T06:17:49.213Z,35.15
2017-09-30T06:20:16.002Z,51.80
2017-09-30T06:22:42.898Z,30.58
2017-09-30T06:25:09.690Z,27.90
2017-09-30T06:27:36.465Z,25.60
2017-09-30T06:30:03.155Z,26.45
2017-09-30T06:32:29.820Z,27.90
2017-09-30T06:34:56.427Z,25.95
2017-09-30T06:37:23.053Z,25.75
2017-09-30T06:39:49.768Z,25.55
2017-09-30T06:42:16.379Z,25.27
2017-09-30T06:44:43.007Z,25.62
2017-09-30T06:47:09.611Z,31.90
2017-09-30T06:49:36.212Z,29.02
2017-09-30T06:52:02.841Z,30.50
2017-09-30T06:54:29.450Z,28.73
2017-09-30T06:56:56.079Z,27.33
2017-09-30T06:59:22.697Z,28.40
2017-09-30T07:01:49.310Z,26.45
2017-09-30T07:04:15.942Z,29.65
2017-09-30T07:06:42.558Z,29.55
2017-09-30T07:09:09.166Z,28.17
2017-09-30T07:11:35.794Z,30.33
2017-09-30T07:14:02.434Z,30.60
2017-09-30T07:16:29.073Z,29.02
2017-09-30T07:18:55.726Z,29.50
2017-09-30T07:21:22.337Z,29.02
2017-09-30T07:23:48.950Z,27.17
2017-09-30T07:26:15.590Z,28.62
2017-09-30T07:28:42.236Z,31.65
2017-09-30T07:31:09.563Z,29.12
2017-09-30T07:33:36.258Z,29.42
2017-09-30T07:36:03.982Z,34.30
2017-09-30T07:38:31.831Z,30.00
2017-09-30T07:40:58.977Z,31.20
2017-09-30T07:43:25.922Z,30.52
2017-09-30T07:45:54.094Z,27.48
2017-09-30T07:48:23.287Z,33.80
2017-09-30T07:50:50.454Z,28.80
2017-09-30T07:53:17.362Z,26.02
2017-09-30T07:55:44.210Z,25.52
2017-09-30T07:58:11.570Z,24.00
2017-09-30T08:00:38.526Z,25.85
2017-09-30T08:03:05.471Z,28.77
2017-09-30T08:05:35.676Z,25.73
2017-09-30T08:08:13.517Z,28.35
2017-09-30T08:13:37.309Z,28.12
2017-09-30T08:19:04.893Z,28.77
2017-09-30T08:24:34.471Z,31.02
2017-09-30T08:27:09.662Z,30.00
2017-09-30T08:29:51.483Z,28.70
2017-09-30T08:32:18.094Z,30.70
2017-09-30T08:34:44.696Z,29.48
2017-09-30T08:37:11.329Z,30.25
2017-09-30T08:39:54.461Z,34.13
2017-09-30T08:42:21.103Z,28.40
2017-09-30T08:44:52.211Z,27.08
2017-09-30T08:50:24.575Z,33.08
2017-09-30T08:55:56.356Z,30.37
2017-09-30T08:58:33.090Z,30.85
2017-09-30T09:00:59.697Z,25.40
2017-09-30T09:03:26.322Z,26.37
2017-09-30T09:05:54.076Z,25.37
2017-09-30T09:11:50.806Z,25.20
2017-09-30T09:14:17.409Z,26.77
2017-09-30T09:16:44.021Z,25.37
2017-09-30T09:19:10.729Z,27.17
2017-09-30T09:21:37.338Z,22.77
2017-09-30T09:24:03.941Z,23.05
2017-09-30T09:26:30.638Z,21.83
2017-09-30T09:28:57.250Z,22.05
2017-09-30T09:31:23.861Z,21.33
2017-09-30T09:33:50.485Z,22.48
2017-09-30T09:36:25.418Z,22.37
2017-09-30T09:38:52.046Z,20.52
2017-09-30T09:41:18.766Z,20.55
2017-09-30T09:43:45.375Z,20.20
2017-09-30T09:46:12.006Z,19.77
2017-09-30T09:48:38.613Z,20.58
2017-09-30T09:51:05.219Z,19.05
2017-09-30T09:53:31.846Z,19.17
2017-09-30T09:56:04.241Z,19.37
2017-09-30T09:58:30.870Z,21.27
2017-09-30T10:00:57.493Z,19.83
2017-09-30T10:03:27.833Z,24.12
2017-09-30T10:05:54.461Z,21.12
2017-09-30T10:08:21.068Z,21.00
2017-09-30T10:10:47.680Z,19.30
2017-09-30T10:13:14.394Z,16.40
2017-09-30T10:15:41.001Z,16.00
2017-09-30T10:18:07.894Z,16.17
2017-09-30T10:20:34.527Z,20.58
2017-09-30T10:23:01.504Z,16.70
2017-09-30T10:25:28.509Z,17.98
2017-09-30T10:28:00.108Z,14.55
2017-09-30T10:30:32.852Z,14.27
2017-09-30T10:33:01.322Z,16.02
2017-09-30T10:35:30.733Z,15.65
2017-09-30T10:38:01.057Z,18.25
2017-09-30T10:40:28.071Z,26.87
2017-09-30T10:45:49.378Z,16.87
2017-09-30T10:48:16.099Z,15.38
2017-09-30T10:53:31.065Z,16.00
2017-09-30T20:29:29.374Z,18.25
2017-09-30T20:31:56.846Z,23.15
2017-09-30T20:34:23.462Z,28.20
2017-09-30T20:36:50.094Z,33.10
2017-09-30T20:39:16.707Z,38.22
2017-09-30T20:41:43.313Z,41.55
2017-09-30T20:44:09.938Z,37.67
2017-09-30T20:46:36.549Z,40.67
2017-09-30T20:49:03.162Z,34.35
2017-09-30T20:51:29.794Z,22.27
2017-09-30T20:53:56.411Z,30.10
2017-09-30T20:56:23.043Z,15.27
2017-09-30T20:58:49.684Z,20.12
2017-09-30T21:01:16.282Z,15.60
2017-09-30T21:03:42.924Z,13.80
2017-09-30T21:06:09.734Z,12.75
2017-09-30T21:08:36.774Z,10.32
2017-09-30T21:11:03.773Z,9.05
2017-09-30T21:16:38.280Z,5.65
2017-09-30T21:19:07.517Z,8.63
2017-09-30T21:21:35.570Z,10.27
2017-09-30T21:24:02.505Z,8.65
2017-09-30T21:26:30.909Z,8.95
2017-09-30T21:28:57.522Z,7.87
2017-09-30T21:36:23.694Z,9.38
2017-09-30T21:38:50.299Z,14.87
2017-09-30T21:41:17.733Z,8.35
2017-09-30T21:43:45.301Z,10.57
2017-09-30T21:46:13.622Z,12.18
2017-09-30T23:25:28.411Z,22.50
2017-09-30T23:27:55.029Z,27.27
2017-09-30T23:30:21.644Z,40.70
2017-09-30T23:32:48.270Z,51.40
2017-09-30T23:35:14.878Z,28.12
2017-09-30T23:37:41.502Z,75.35
2017-09-30T23:40:08.178Z,39.30
2017-09-30T23:42:34.829Z,14.27
2017-09-30T23:45:02.668Z,11.20
2017-09-30T23:47:32.122Z,12.48
2017-09-30T23:49:58.758Z,8.77
2017-09-30T23:52:25.540Z,8.77
2017-09-30T23:54:52.358Z,7.95
2017-09-30T23:57:18.969Z,5.75
2017-09-30T23:59:45.569Z,6.53
